createdAt,value
2018-06-07T00:00:57.394Z,19.70
2018-06-07T00:03:26.921Z,19.00
2018-06-07T00:17:47.851Z,20.30
2018-06-07T00:20:17.268Z,20.30
2018-06-07T00:22:46.652Z,19.20
2018-06-07T00:25:16.102Z,23.33
2018-06-07T00:27:45.500Z,20.93
2018-06-07T00:30:14.987Z,22.60
2018-06-07T00:32:44.374Z,24.80
2018-06-07T00:35:13.827Z,19.00
2018-06-07T00:37:42.978Z,19.27
2018-06-07T00:40:12.450Z,20.33
2018-06-07T00:42:41.897Z,20.17
2018-06-07T00:45:11.067Z,20.27
2018-06-07T00:47:40.450Z,17.87
2018-06-07T00:50:10.294Z,20.30
2018-06-07T00:52:39.698Z,21.80
2018-06-07T00:55:09.165Z,20.87
2018-06-07T00:57:38.593Z,21.07
2018-06-07T01:00:08.060Z,18.73
2018-06-07T01:02:37.184Z,18.37
2018-06-07T01:05:06.575Z,18.60
2018-06-07T01:07:36.080Z,19.80
2018-06-07T01:10:05.838Z,18.17
2018-06-07T01:12:35.303Z,18.60
2018-06-07T01:15:04.706Z,19.37
2018-06-07T01:17:34.135Z,18.60
2018-06-07T01:20:03.800Z,21.23
2018-06-07T01:22:33.285Z,21.60
2018-06-07T01:25:02.854Z,19.40
2018-06-07T01:27:41.645Z,18.17
2018-06-07T01:30:27.461Z,20.23
2018-06-07T01:33:27.793Z,20.13
2018-06-07T01:35:58.380Z,19.60
2018-06-07T01:38:39.141Z,19.57
2018-06-07T01:41:08.880Z,20.60
2018-06-07T01:43:38.351Z,18.90
2018-06-07T01:46:07.751Z,19.20
2018-06-07T01:48:37.211Z,20.33
2018-06-07T01:51:06.948Z,18.93
2018-06-07T01:53:36.387Z,19.53
2018-06-07T01:56:05.472Z,18.43
2018-06-07T01:58:34.972Z,19.73
2018-06-07T02:01:04.397Z,18.30
2018-06-07T02:03:33.884Z,22.60
2018-06-07T02:06:03.293Z,19.70
2018-06-07T02:08:32.694Z,22.60
2018-06-07T02:11:02.117Z,18.87
2018-06-07T02:13:31.586Z,19.57
2018-06-07T02:16:00.996Z,23.00
2018-06-07T02:18:30.452Z,20.40
2018-06-07T02:20:59.868Z,18.60
2018-06-07T02:23:29.353Z,20.77
2018-06-07T02:25:58.754Z,18.40
2018-06-07T02:28:28.171Z,19.83
2018-06-07T02:30:57.531Z,21.37
2018-06-07T02:33:27.024Z,19.33
2018-06-07T02:35:56.417Z,20.67
2018-06-07T02:38:25.881Z,18.97
2018-06-07T02:40:55.265Z,19.40
2018-06-07T02:43:24.729Z,23.70
2018-06-07T02:45:54.094Z,18.87
2018-06-07T02:48:23.525Z,19.53
2018-06-07T02:50:52.937Z,23.00
2018-06-07T02:53:22.392Z,19.93
2018-06-07T02:55:51.798Z,18.90
2018-06-07T02:58:21.181Z,18.37
2018-06-07T03:00:50.596Z,18.13
2018-06-07T03:03:20.031Z,19.00
2018-06-07T03:05:49.121Z,17.50
2018-06-07T03:08:18.911Z,19.40
2018-06-07T03:10:48.236Z,19.00
2018-06-07T03:13:17.744Z,21.00
2018-06-07T03:15:47.165Z,19.50
2018-06-07T03:18:17.007Z,19.43
2018-06-07T03:20:46.376Z,19.03
2018-06-07T03:23:15.818Z,19.47
2018-06-07T03:25:45.217Z,21.60
2018-06-07T03:28:14.693Z,19.93
2018-06-07T03:30:44.125Z,20.63
2018-06-07T03:33:13.641Z,19.07
2018-06-07T03:35:43.076Z,19.43
2018-06-07T03:38:12.533Z,19.27
2018-06-07T03:40:41.962Z,20.20
2018-06-07T03:43:11.417Z,25.43
2018-06-07T03:45:40.822Z,24.17
2018-06-07T03:48:14.021Z,20.23
2018-06-07T03:50:43.393Z,20.23
2018-06-07T03:53:12.836Z,30.77
2018-06-07T03:55:42.262Z,19.43
2018-06-07T03:58:11.522Z,22.60
2018-06-07T04:00:40.943Z,20.63
2018-06-07T04:03:11.498Z,20.00
2018-06-07T04:05:40.876Z,21.67
2018-06-07T04:08:10.275Z,20.60
2018-06-07T04:10:39.677Z,20.73
2018-06-07T04:13:09.187Z,20.53
2018-06-07T04:15:38.542Z,24.63
2018-06-07T04:18:07.984Z,18.73
2018-06-07T04:20:37.330Z,20.40
2018-06-07T04:23:06.781Z,19.87
2018-06-07T04:25:36.213Z,21.20
2018-06-07T04:28:05.667Z,19.73
2018-06-07T04:30:35.118Z,20.50
2018-06-07T04:33:04.911Z,21.33
2018-06-07T04:35:34.252Z,20.73
2018-06-07T04:38:03.840Z,20.93
2018-06-07T04:40:33.125Z,20.83
2018-06-07T04:43:02.576Z,21.50
2018-06-07T04:45:34.375Z,18.83
2018-06-07T04:48:04.006Z,19.20
2018-06-07T04:50:35.348Z,22.80
2018-06-07T04:53:05.829Z,20.83
2018-06-07T04:55:37.151Z,22.63
2018-06-07T04:58:08.417Z,18.47
2018-06-07T05:00:38.995Z,19.80
2018-06-07T05:03:11.506Z,20.60
2018-06-07T05:08:40.876Z,19.97
2018-06-07T05:11:12.461Z,20.63
2018-06-07T05:13:42.695Z,21.23
2018-06-07T05:16:13.143Z,26.20
2018-06-07T05:18:44.101Z,20.10
2018-06-07T05:21:15.334Z,21.40
2018-06-07T05:23:48.395Z,20.93
2018-06-07T05:26:19.713Z,21.23
2018-06-07T05:28:51.674Z,19.67
2018-06-07T05:31:23.768Z,19.77
2018-06-07T05:33:55.985Z,23.57
2018-06-07T05:36:27.959Z,22.30
2018-06-07T05:39:00.817Z,19.97
2018-06-07T05:41:32.837Z,20.97
2018-06-07T05:44:03.791Z,19.63
2018-06-07T05:46:35.522Z,19.23
2018-06-07T05:49:07.299Z,20.10
2018-06-07T05:51:39.472Z,18.77
2018-06-07T05:54:11.371Z,25.20
2018-06-07T05:56:43.271Z,15.77
2018-06-07T05:59:15.998Z,17.57
2018-06-07T06:01:48.333Z,17.83
2018-06-07T06:04:18.814Z,19.30
2018-06-07T06:06:49.709Z,19.40
2018-06-07T06:09:21.019Z,18.57
2018-06-07T06:11:52.630Z,19.03
2018-06-07T06:14:25.676Z,15.17
2018-06-07T06:16:55.255Z,16.00
2018-06-07T06:19:24.647Z,17.33
2018-06-07T06:21:54.394Z,17.23
2018-06-07T06:24:23.861Z,19.10
2018-06-07T06:26:53.273Z,19.30
2018-06-07T06:29:22.659Z,17.77
2018-06-07T06:31:52.053Z,16.07
2018-06-07T06:34:21.498Z,18.23
2018-06-07T06:36:50.880Z,13.97
2018-06-07T06:39:20.276Z,20.80
2018-06-07T06:41:49.764Z,16.23
2018-06-07T06:44:19.159Z,15.57
2018-06-07T06:46:48.613Z,14.97
2018-06-07T06:49:18.084Z,15.30
2018-06-07T06:51:47.733Z,12.63
2018-06-07T06:54:17.182Z,15.23
2018-06-07T06:56:46.684Z,14.13
2018-06-07T06:59:16.319Z,15.10
2018-06-07T07:01:45.876Z,12.10
2018-06-07T07:04:15.277Z,12.20
2018-06-07T07:06:44.984Z,12.00
2018-06-07T07:09:14.414Z,10.97
2018-06-07T07:11:43.991Z,15.83
2018-06-07T07:14:13.502Z,11.43
2018-06-07T07:16:42.956Z,12.20
2018-06-07T07:19:12.346Z,10.60
2018-06-07T07:21:41.770Z,14.70
2018-06-07T07:24:11.161Z,17.03
2018-06-07T07:26:40.647Z,10.10
2018-06-07T07:29:10.000Z,14.80
2018-06-07T07:31:39.557Z,12.40
2018-06-07T07:34:08.993Z,10.17
2018-06-07T07:36:38.409Z,12.90
2018-06-07T07:39:08.032Z,11.20
2018-06-07T07:41:37.470Z,13.50
2018-06-07T07:44:06.877Z,13.40
2018-06-07T07:46:36.405Z,16.60
2018-06-07T07:49:05.782Z,20.30
2018-06-07T07:51:35.188Z,15.40
2018-06-07T07:54:04.694Z,10.90
2018-06-07T07:56:34.102Z,11.10
2018-06-07T07:59:03.627Z,10.83
2018-06-07T08:01:32.976Z,12.43
2018-06-07T08:04:02.458Z,17.53
2018-06-07T08:06:31.800Z,10.77
2018-06-07T08:09:01.312Z,14.90
2018-06-07T08:11:30.702Z,11.53
2018-06-07T08:14:00.165Z,21.57
2018-06-07T08:16:29.556Z,25.17
2018-06-07T08:18:59.076Z,10.70
2018-06-07T08:21:28.450Z,12.60
2018-06-07T08:23:57.891Z,9.87
2018-06-07T08:26:27.294Z,10.40
2018-06-07T08:28:56.728Z,13.03
2018-06-07T08:31:26.240Z,13.23
2018-06-07T08:33:55.613Z,11.10
2018-06-07T08:36:25.107Z,13.80
2018-06-07T08:38:54.637Z,15.43
2018-06-07T08:41:24.022Z,11.30
2018-06-07T08:43:53.425Z,9.93
2018-06-07T08:46:22.795Z,13.93
2018-06-07T08:48:52.257Z,9.60
2018-06-07T08:51:21.642Z,9.20
2018-06-07T08:53:51.216Z,12.20
2018-06-07T08:56:20.661Z,10.10
2018-06-07T08:58:50.050Z,8.47
2018-06-07T09:01:19.487Z,11.00
2018-06-07T09:03:48.847Z,12.70
2018-06-07T09:06:18.861Z,11.73
2018-06-07T09:08:48.274Z,11.37
2018-06-07T09:11:18.288Z,11.27
2018-06-07T09:13:48.048Z,13.53
2018-06-07T09:16:17.590Z,13.90
2018-06-07T09:18:46.998Z,14.70
2018-06-07T09:21:16.848Z,14.03
2018-06-07T09:23:46.237Z,13.63
2018-06-07T09:26:15.740Z,13.60
2018-06-07T09:28:45.109Z,11.27
2018-06-07T09:31:14.971Z,10.70
2018-06-07T09:33:44.341Z,11.13
2018-06-07T09:36:13.855Z,7.60
2018-06-07T09:38:43.205Z,11.83
2018-06-07T09:41:12.635Z,9.47
2018-06-07T09:43:42.758Z,8.77
2018-06-07T09:46:12.144Z,10.23
2018-06-07T09:48:41.300Z,8.33
2018-06-07T09:51:10.967Z,18.63
2018-06-07T09:53:40.448Z,10.53
2018-06-07T09:56:09.808Z,10.43
2018-06-07T09:58:39.271Z,10.53
2018-06-07T10:01:08.681Z,13.17
2018-06-07T10:03:38.240Z,11.80
2018-06-07T10:06:07.773Z,8.60
2018-06-07T10:08:37.519Z,7.60
2018-06-07T10:11:06.934Z,10.43
2018-06-07T10:13:36.290Z,11.40
2018-06-07T10:16:05.817Z,11.63
2018-06-07T10:18:35.246Z,12.23
2018-06-07T10:21:04.709Z,11.27
2018-06-07T10:23:34.049Z,9.10
2018-06-07T10:26:04.121Z,11.00
2018-06-07T10:28:33.468Z,13.13
2018-06-07T10:31:03.232Z,10.30
2018-06-07T10:33:32.622Z,11.53
2018-06-07T10:36:02.062Z,9.00
2018-06-07T10:38:31.437Z,8.83
2018-06-07T10:41:00.850Z,10.93
2018-06-07T10:43:30.226Z,13.50
2018-06-07T10:46:00.114Z,8.60
2018-06-07T10:48:30.022Z,8.70
2018-06-07T10:50:59.447Z,13.60
2018-06-07T10:53:28.799Z,10.77
2018-06-07T10:55:58.248Z,9.40
2018-06-07T10:58:28.304Z,10.00
2018-06-07T11:00:57.751Z,8.80
2018-06-07T11:03:28.187Z,10.37
2018-06-07T11:05:58.094Z,10.93
2018-06-07T11:08:27.507Z,13.87
2018-06-07T11:10:57.326Z,10.83
2018-06-07T11:13:26.817Z,12.50
2018-06-07T11:15:56.193Z,9.23
2018-06-07T11:18:26.090Z,10.20
2018-06-07T11:20:55.595Z,12.23
2018-06-07T11:23:24.982Z,14.53
2018-06-07T11:25:54.417Z,9.43
2018-06-07T11:28:23.776Z,16.50
2018-06-07T11:30:53.245Z,10.07
2018-06-07T11:33:23.528Z,10.50
2018-06-07T11:35:52.908Z,9.40
2018-06-07T11:38:22.582Z,10.87
2018-06-07T11:40:52.092Z,13.30
2018-06-07T11:43:21.681Z,10.53
2018-06-07T11:45:51.077Z,14.80
2018-06-07T11:48:21.423Z,11.23
2018-06-07T11:50:50.841Z,10.90
2018-06-07T11:53:20.228Z,12.90
2018-06-07T11:55:49.709Z,10.70
2018-06-07T11:58:19.090Z,14.67
2018-06-07T12:00:48.543Z,13.83
2018-06-07T12:03:18.316Z,10.10
2018-06-07T12:05:47.807Z,17.23
2018-06-07T12:08:17.304Z,10.87
2018-06-07T12:10:46.542Z,11.53
2018-06-07T12:13:16.421Z,12.67
2018-06-07T12:15:45.877Z,12.43
2018-06-07T12:18:15.281Z,14.07
2018-06-07T12:20:45.427Z,13.17
2018-06-07T12:23:15.023Z,13.03
2018-06-07T12:25:44.404Z,12.60
2018-06-07T12:28:13.786Z,13.07
2018-06-07T12:30:43.186Z,12.20
2018-06-07T12:33:12.571Z,11.53
2018-06-07T12:35:41.971Z,13.80
2018-06-07T12:38:11.381Z,12.23
2018-06-07T12:40:40.762Z,17.50
2018-06-07T12:43:10.214Z,12.23
2018-06-07T12:45:39.591Z,12.37
2018-06-07T12:48:09.032Z,12.97
2018-06-07T12:50:39.236Z,11.07
2018-06-07T12:53:08.624Z,10.93
2018-06-07T12:55:38.072Z,19.73
2018-06-07T12:58:07.440Z,12.13
2018-06-07T13:00:37.064Z,12.87
2018-06-07T13:03:06.632Z,11.90
2018-06-07T13:05:36.129Z,12.83
2018-06-07T13:08:05.481Z,19.63
2018-06-07T13:10:34.946Z,11.17
2018-06-07T13:13:04.298Z,11.13
2018-06-07T13:15:33.841Z,18.33
2018-06-07T13:18:03.366Z,15.10
2018-06-07T13:20:33.544Z,12.70
2018-06-07T13:23:03.706Z,18.60
2018-06-07T13:25:33.863Z,12.57
2018-06-07T13:28:03.471Z,12.03
2018-06-07T13:30:32.830Z,11.93
2018-06-07T13:33:12.971Z,14.10
2018-06-07T13:35:42.929Z,12.27
2018-06-07T13:38:12.350Z,13.03
2018-06-07T13:40:41.740Z,15.53
2018-06-07T13:43:11.214Z,15.27
2018-06-07T13:45:40.624Z,13.80
2018-06-07T13:48:10.010Z,11.97
2018-06-07T13:50:39.517Z,12.57
2018-06-07T13:53:09.000Z,13.13
2018-06-07T13:55:38.505Z,15.00
2018-06-07T13:58:08.440Z,13.20
2018-06-07T14:00:37.849Z,18.33
2018-06-07T14:03:07.476Z,17.23
2018-06-07T14:05:37.147Z,13.37
2018-06-07T14:08:06.239Z,17.10
2018-06-07T14:10:35.553Z,13.40
2018-06-07T14:13:05.963Z,13.50
2018-06-07T14:15:35.461Z,19.33
2018-06-07T14:18:04.917Z,11.20
2018-06-07T14:20:34.327Z,13.47
2018-06-07T14:23:03.819Z,19.37
2018-06-07T14:25:33.223Z,12.00
2018-06-07T14:28:02.738Z,12.47
2018-06-07T14:30:32.516Z,14.60
2018-06-07T14:33:01.954Z,13.93
2018-06-07T14:35:31.340Z,15.33
2018-06-07T14:38:00.764Z,16.13
2018-06-07T14:40:30.599Z,17.20
2018-06-07T14:43:00.089Z,8.27
2018-06-07T14:45:29.573Z,6.40
2018-06-07T14:47:59.015Z,6.97
2018-06-07T14:50:28.397Z,5.77
2018-06-07T14:52:57.808Z,7.30
2018-06-07T14:55:28.330Z,7.30
2018-06-07T14:57:58.060Z,5.70
2018-06-07T15:00:27.506Z,7.13
2018-06-07T15:02:56.893Z,5.10
2018-06-07T15:05:26.341Z,4.97
2018-06-07T15:07:55.769Z,5.60
2018-06-07T15:10:25.218Z,4.93
2018-06-07T15:12:54.610Z,4.47
2018-06-07T15:15:25.542Z,7.47
2018-06-07T15:17:54.953Z,9.67
2018-06-07T15:20:24.385Z,8.13
2018-06-07T15:22:53.764Z,7.80
2018-06-07T15:25:23.152Z,7.73
2018-06-07T15:27:52.642Z,7.70
2018-06-07T15:30:22.333Z,7.57
2018-06-07T15:32:51.931Z,8.10
2018-06-07T15:35:21.423Z,9.77
2018-06-07T15:37:51.125Z,8.53
2018-06-07T15:40:20.673Z,8.17
2018-06-07T15:42:50.888Z,12.87
2018-06-07T15:45:20.319Z,9.03
2018-06-07T15:47:49.698Z,12.77
2018-06-07T15:50:19.146Z,9.20
2018-06-07T15:52:48.911Z,12.60
2018-06-07T15:55:18.418Z,10.00
2018-06-07T15:57:47.793Z,12.53
2018-06-07T16:00:18.079Z,13.43
2018-06-07T16:02:48.428Z,10.03
2018-06-07T16:05:17.962Z,11.27
2018-06-07T16:07:48.557Z,12.00
2018-06-07T16:10:17.994Z,13.37
2018-06-07T16:12:47.380Z,12.20
2018-06-07T16:15:16.732Z,12.23
2018-06-07T16:17:46.145Z,13.93
2018-06-07T16:20:15.516Z,10.73
2018-06-07T16:22:45.684Z,10.70
2018-06-07T16:25:15.063Z,11.90
2018-06-07T16:27:44.536Z,13.00
2018-06-07T16:30:15.027Z,13.47
2018-06-07T16:32:44.480Z,18.90
2018-06-07T16:35:13.889Z,12.17
2018-06-07T16:37:43.345Z,15.77
2018-06-07T16:40:12.785Z,14.97
2018-06-07T16:42:42.317Z,15.63
2018-06-07T16:45:11.851Z,18.43
2018-06-07T16:47:41.243Z,13.93
2018-06-07T16:50:10.754Z,14.87
2018-06-07T16:52:40.138Z,19.87
2018-06-07T16:55:09.665Z,16.43
2018-06-07T16:57:39.042Z,15.70
2018-06-07T17:00:08.496Z,17.50
2018-06-07T17:02:37.926Z,16.33
2018-06-07T17:05:08.043Z,20.90
2018-06-07T17:07:37.670Z,16.27
2018-06-07T17:10:07.443Z,18.77
2018-06-07T17:12:36.793Z,16.13
2018-06-07T17:15:06.324Z,14.90
2018-06-07T17:17:35.453Z,16.10
2018-06-07T17:20:04.964Z,16.70
2018-06-07T17:22:34.316Z,15.00
2018-06-07T17:25:04.034Z,18.67
2018-06-07T17:27:33.377Z,15.47
2018-06-07T17:30:03.183Z,18.17
2018-06-07T17:32:32.550Z,21.07
2018-06-07T17:35:02.082Z,20.33
2018-06-07T17:37:31.854Z,21.27
2018-06-07T17:40:01.277Z,20.67
2018-06-07T17:42:30.690Z,22.10
2018-06-07T17:45:00.113Z,20.40
2018-06-07T17:47:29.496Z,22.03
2018-06-07T17:49:58.992Z,17.10
2018-06-07T17:52:28.717Z,24.63
2018-06-07T17:54:58.163Z,22.80
2018-06-07T17:57:27.891Z,17.70
2018-06-07T17:59:57.319Z,19.33
2018-06-07T18:02:26.714Z,19.30
2018-06-07T18:04:56.164Z,18.50
2018-06-07T18:07:25.630Z,23.23
2018-06-07T18:09:55.224Z,23.20
2018-06-07T18:12:24.626Z,21.77
2018-06-07T18:14:54.510Z,22.83
2018-06-07T18:17:23.678Z,20.57
2018-06-07T18:19:53.219Z,17.10
2018-06-07T18:22:22.914Z,23.23
2018-06-07T18:24:52.345Z,17.20
2018-06-07T18:27:22.046Z,21.87
2018-06-07T18:29:51.526Z,24.10
2018-06-07T18:35:26.374Z,16.87
2018-06-07T18:37:55.810Z,19.60
2018-06-07T18:40:25.276Z,17.37
2018-06-07T18:42:54.677Z,17.23
2018-06-07T18:45:24.096Z,17.03
2018-06-07T18:47:53.673Z,16.87
2018-06-07T18:50:23.147Z,16.57
2018-06-07T18:52:52.480Z,17.43
2018-06-07T18:55:21.948Z,16.77
2018-06-07T18:57:51.411Z,16.13
2018-06-07T19:00:20.922Z,16.40
2018-06-07T19:02:50.023Z,14.20
2018-06-07T19:05:19.117Z,18.33
2018-06-07T19:07:49.264Z,16.73
2018-06-07T19:10:20.275Z,18.17
2018-06-07T19:12:50.704Z,16.77
2018-06-07T19:15:20.114Z,17.33
2018-06-07T19:17:49.636Z,18.97
2018-06-07T19:20:24.635Z,21.33
2018-06-07T19:22:53.977Z,18.53
2018-06-07T19:25:28.646Z,19.60
2018-06-07T19:27:58.074Z,20.17
2018-06-07T19:30:28.394Z,17.07
2018-06-07T19:34:01.614Z,26.67
2018-06-07T19:36:31.462Z,19.23
2018-06-07T19:39:05.844Z,18.00
2018-06-07T19:41:40.324Z,18.47
2018-06-07T19:44:09.896Z,18.50
2018-06-07T19:46:39.259Z,25.13
2018-06-07T19:52:06.838Z,21.40
2018-06-07T19:54:36.210Z,21.30
2018-06-07T19:57:06.034Z,24.30
2018-06-07T19:59:35.724Z,24.40
2018-06-07T20:02:05.498Z,21.50
2018-06-07T20:04:34.985Z,20.83
2018-06-07T20:07:04.354Z,20.67
2018-06-07T20:09:33.490Z,22.77
2018-06-07T20:12:03.259Z,23.30
2018-06-07T20:14:32.268Z,20.80
2018-06-07T20:17:01.872Z,23.97
2018-06-07T20:19:31.924Z,20.47
2018-06-07T20:22:01.412Z,21.23
2018-06-07T20:24:31.127Z,21.60
2018-06-07T20:27:00.573Z,22.33
2018-06-07T20:29:30.014Z,22.33
2018-06-07T20:31:59.786Z,24.33
2018-06-07T20:34:29.240Z,21.57
2018-06-07T20:36:58.460Z,21.43
2018-06-07T20:39:27.841Z,22.97
2018-06-07T20:41:57.297Z,23.53
2018-06-07T20:44:26.453Z,23.23
2018-06-07T20:46:55.939Z,24.23
2018-06-07T20:49:25.440Z,25.33
2018-06-07T20:51:54.998Z,24.43
2018-06-07T20:54:24.409Z,24.30
2018-06-07T20:56:53.461Z,24.50
2018-06-07T20:59:22.901Z,23.73
2018-06-07T21:01:52.043Z,23.10
2018-06-07T21:04:21.456Z,23.80
2018-06-07T21:06:50.580Z,26.63
2018-06-07T21:09:19.814Z,21.90
2018-06-07T21:11:49.201Z,22.67
2018-06-07T21:14:18.433Z,22.80
2018-06-07T21:16:47.832Z,22.60
2018-06-07T21:19:17.236Z,25.10
2018-06-07T21:21:46.921Z,21.90
2018-06-07T21:24:16.074Z,24.60
2018-06-07T21:26:45.218Z,23.83
2018-06-07T21:29:14.685Z,25.50
2018-06-07T21:31:44.063Z,21.90
2018-06-07T21:34:13.154Z,23.57
2018-06-07T21:36:42.288Z,24.43
2018-06-07T21:39:11.385Z,22.70
2018-06-07T21:41:40.532Z,24.57
2018-06-07T21:44:09.971Z,20.70
2018-06-07T21:46:39.084Z,23.10
2018-06-07T21:49:08.238Z,24.13
2018-06-07T21:51:37.364Z,22.73
2018-06-07T21:54:06.564Z,22.70
2018-06-07T21:56:35.804Z,29.23
2018-06-07T21:59:05.162Z,27.40
2018-06-07T22:01:34.746Z,23.43
2018-06-07T22:04:03.965Z,25.87
2018-06-07T22:06:33.086Z,26.30
2018-06-07T22:09:02.369Z,27.23
2018-06-07T22:11:31.805Z,27.00
2018-06-07T22:14:01.000Z,27.63
2018-06-07T22:16:30.108Z,27.07
2018-06-07T22:18:59.334Z,25.17
2018-06-07T22:21:28.477Z,28.00
2018-06-07T22:23:57.558Z,27.03
2018-06-07T22:26:26.813Z,27.33
2018-06-07T22:28:55.932Z,32.67
2018-06-07T22:31:25.442Z,28.20
2018-06-07T22:33:54.645Z,28.40
2018-06-07T22:36:23.805Z,29.23
2018-06-07T22:38:53.059Z,29.03
2018-06-07T22:41:22.110Z,32.53
2018-06-07T22:43:51.285Z,31.20
2018-06-07T22:46:20.677Z,29.47
2018-06-07T22:48:49.759Z,29.07
2018-06-07T22:51:18.891Z,27.43
2018-06-07T22:53:47.989Z,28.33
2018-06-07T22:56:17.436Z,28.03
2018-06-07T22:58:46.629Z,29.63
2018-06-07T23:01:15.854Z,26.80
2018-06-07T23:03:45.272Z,28.63
2018-06-07T23:06:14.728Z,25.83
2018-06-07T23:08:43.840Z,26.73
2018-06-07T23:11:13.594Z,29.87
2018-06-07T23:13:42.705Z,25.73
2018-06-07T23:16:11.869Z,30.17
2018-06-07T23:18:41.238Z,29.50
2018-06-07T23:21:10.707Z,26.63
2018-06-07T23:23:40.113Z,35.10
2018-06-07T23:26:09.555Z,25.83
2018-06-07T23:28:38.925Z,27.87
2018-06-07T23:31:08.300Z,30.63
2018-06-07T23:33:37.811Z,30.70
2018-06-07T23:36:07.176Z,28.50
2018-06-07T23:38:36.605Z,28.60
2018-06-07T23:41:06.033Z,27.90
2018-06-07T23:43:35.429Z,31.67
2018-06-07T23:46:04.933Z,28.40
2018-06-07T23:48:34.324Z,29.77
2018-06-07T23:51:04.028Z,27.67
2018-06-07T23:53:33.368Z,27.00
2018-06-07T23:56:02.805Z,26.10
2018-06-07T23:58:32.200Z,26.93
